Time;durP1;ratioP1;P1;durP2;ratioP2;P2;SDS_P1;SDS_P2;PMS_P1;PMS_P2;Temp;Humidity;BMP_temperature;BMP_pressure;BME280_temperature;BME280_humidity;BME280_pressure;Samples;Min_cycle;Max_cycle;Signal;HPM_P1;HPM_P2
2023/07/19 00:02:21;;;;;;;15.38;6.18;;;;;;;19.31;80.09;92809.84;2061493;69;20257;-79
2023/07/19 00:04:47;;;;;;;19.13;5.90;;;;;;;19.25;80.35;92810.38;2061333;69;20169;-79
2023/07/19 00:07:13;;;;;;;21.48;6.80;;;;;;;19.41;79.70;92818.69;2061104;69;20167;-79
2023/07/19 00:09:39;;;;;;;20.85;6.68;;;;;;;19.23;80.78;92835.25;2061121;69;20187;-79
2023/07/19 00:12:06;;;;;;;16.90;6.28;;;;;;;19.46;80.42;92860.25;2057884;69;20149;-78
2023/07/19 00:14:31;;;;;;;17.67;7.10;;;;;;;19.50;80.00;92857.50;2060728;69;20156;-79
2023/07/19 00:16:57;;;;;;;15.50;6.20;;;;;;;19.66;78.43;92845.16;2061470;69;20153;-78
2023/07/19 00:19:22;;;;;;;16.20;6.38;;;;;;;19.47;79.67;92823.84;2060835;69;20552;-78
2023/07/19 00:21:48;;;;;;;14.90;6.30;;;;;;;19.24;79.08;92819.59;2060969;69;20544;-78
2023/07/19 00:24:14;;;;;;;19.55;6.07;;;;;;;19.46;79.53;92825.25;2061004;69;20244;-77
2023/07/19 00:26:40;;;;;;;17.98;6.43;;;;;;;19.44;79.49;92808.06;2060877;69;20226;-76
2023/07/19 00:29:06;;;;;;;17.70;5.90;;;;;;;19.20;82.00;92830.91;2061004;69;20169;-77
2023/07/19 00:31:32;;;;;;;18.00;5.95;;;;;;;19.25;81.74;92847.47;2061196;69;20262;-77
2023/07/19 00:33:57;;;;;;;17.38;6.60;;;;;;;19.01;82.57;92861.72;2060527;69;20149;-78
2023/07/19 00:36:24;;;;;;;17.98;6.05;;;;;;;19.33;79.55;92843.41;2060616;69;20636;-79
2023/07/19 00:38:50;;;;;;;15.68;6.15;;;;;;;19.44;79.25;92905.88;2061229;69;20232;-77
2023/07/19 00:41:18;;;;;;;17.02;6.40;;;;;;;19.52;79.11;92903.28;2060773;69;20142;-77
2023/07/19 00:43:45;;;;;;;17.63;6.70;;;;;;;19.47;77.35;92890.25;2061249;69;20133;-77
2023/07/19 00:46:14;;;;;;;16.02;5.88;;;;;;;19.41;77.79;92864.38;2057847;69;20227;-79
2023/07/19 00:48:41;;;;;;;17.63;6.38;;;;;;;19.12;80.13;92824.94;2061166;69;20149;-77
2023/07/19 00:51:07;;;;;;;16.38;6.00;;;;;;;19.03;80.49;92852.50;2061027;69;20252;-78
2023/07/19 00:53:33;;;;;;;14.02;5.55;;;;;;;19.29;81.13;92853.31;2060618;69;20149;-78
2023/07/19 00:56:00;;;;;;;16.38;5.93;;;;;;;19.30;80.02;92826.22;2061181;69;20149;-78
2023/07/19 00:58:29;;;;;;;19.85;6.18;;;;;;;19.22;81.02;92819.53;2060801;69;20521;-78
2023/07/19 01:01:05;;;;;;;18.70;6.15;;;;;;;19.47;79.14;92827.47;2061237;69;20145;-77
2023/07/19 01:03:33;;;;;;;15.57;6.32;;;;;;;19.36;80.71;92848.50;2061312;69;20149;-77
2023/07/19 01:06:00;;;;;;;16.52;6.38;;;;;;;19.50;79.02;92868.94;2060393;69;20609;-78
2023/07/19 01:08:26;;;;;;;14.57;6.32;;;;;;;19.45;79.67;92915.88;2061080;69;20208;-78
2023/07/19 01:10:55;;;;;;;14.18;6.13;;;;;;;19.50;79.72;92942.44;2061479;69;20153;-77
2023/07/19 01:13:22;;;;;;;14.85;5.95;;;;;;;19.40;81.05;92959.25;2060642;69;20654;-78
2023/07/19 01:15:50;;;;;;;21.50;6.75;;;;;;;19.55;79.09;92961.88;2057465;69;20145;-77
2023/07/19 01:18:21;;;;;;;19.90;6.78;;;;;;;19.62;79.72;92956.41;2060812;69;20141;-78
2023/07/19 01:20:48;;;;;;;18.97;6.40;;;;;;;19.58;80.74;92919.84;2057770;69;20183;-77
2023/07/19 01:23:14;;;;;;;14.65;5.75;;;;;;;19.70;79.39;92896.66;2060407;69;20377;-77
2023/07/19 01:25:40;;;;;;;14.25;6.00;;;;;;;19.53;80.67;92890.44;2052107;69;20161;-77
2023/07/19 01:28:07;;;;;;;18.27;6.55;;;;;;;19.66;78.94;92879.44;2061169;69;20644;-77
2023/07/19 01:30:35;;;;;;;19.52;6.03;;;;;;;19.17;80.16;92872.19;2060922;69;20153;-77
2023/07/19 01:33:02;;;;;;;14.00;5.72;;;;;;;19.03;81.23;92855.34;2060684;69;20141;-77
2023/07/19 01:35:28;;;;;;;17.73;6.47;;;;;;;18.71;83.33;92861.44;2060701;69;20156;-76
2023/07/19 01:37:55;;;;;;;13.90;5.70;;;;;;;19.28;81.26;92879.66;2057737;69;20129;-78
2023/07/19 01:40:22;;;;;;;16.00;6.25;;;;;;;19.35;81.95;92907.00;2060731;69;20184;-77
2023/07/19 01:42:51;;;;;;;18.35;6.35;;;;;;;19.43;81.98;92907.28;2060854;69;20619;-77
2023/07/19 01:45:18;;;;;;;17.95;5.82;;;;;;;19.53;79.92;92927.56;2060774;69;20172;-78
2023/07/19 01:47:44;;;;;;;24.10;6.20;;;;;;;19.32;81.72;92925.44;2060336;69;20153;-78
2023/07/19 01:50:10;;;;;;;18.80;6.30;;;;;;;19.42;81.91;92896.50;2060540;69;20232;-78
2023/07/19 01:52:38;;;;;;;19.52;6.30;;;;;;;19.40;80.59;92885.75;2060335;69;20166;-77
2023/07/19 01:55:06;;;;;;;21.02;6.32;;;;;;;19.15;82.78;92909.94;2060184;69;20621;-77
2023/07/19 01:57:32;;;;;;;20.50;6.13;;;;;;;19.35;83.01;92920.56;2060860;69;20227;-77
2023/07/19 02:00:03;;;;;;;19.05;6.38;;;;;;;19.39;82.46;92912.13;2057518;69;20173;-78
2023/07/19 02:02:41;;;;;;;16.00;6.20;;;;;;;19.49;82.08;92936.00;2061378;69;20150;-78
2023/07/19 02:05:07;;;;;;;20.63;6.03;;;;;;;19.52;81.87;92979.63;2060041;69;20261;-76
2023/07/19 02:07:33;;;;;;;23.45;6.57;;;;;;;19.41;82.88;92978.56;2061149;69;20601;-75
2023/07/19 02:09:59;;;;;;;19.38;6.28;;;;;;;19.45;82.01;92967.28;2060782;69;20163;-76
2023/07/19 02:12:24;;;;;;;18.25;6.05;;;;;;;19.53;81.04;92947.53;2060784;69;20168;-77
2023/07/19 02:14:54;;;;;;;19.30;6.28;;;;;;;19.49;78.78;92958.13;2054749;69;20148;-77
2023/07/19 02:17:21;;;;;;;17.50;6.72;;;;;;;19.20;82.70;92974.31;2060873;69;20137;-78
2023/07/19 02:19:47;;;;;;;18.10;6.45;;;;;;;19.32;83.42;92951.16;2060940;69;20145;-78
2023/07/19 02:22:17;;;;;;;17.52;6.47;;;;;;;19.27;84.11;92958.13;2063571;69;20249;-76
2023/07/19 02:24:43;;;;;;;18.15;6.32;;;;;;;19.41;82.77;92957.84;2063838;69;20156;-77
2023/07/19 02:27:12;;;;;;;14.90;6.20;;;;;;;19.34;81.96;92950.50;2064204;69;20137;-79
2023/07/19 02:29:37;;;;;;;20.25;6.57;;;;;;;19.42;82.24;92953.59;2064505;69;20173;-79
2023/07/19 02:32:07;;;;;;;23.60;6.57;;;;;;;19.47;81.32;92924.53;2064542;69;20687;-78
2023/07/19 02:34:32;;;;;;;19.55;6.97;;;;;;;19.41;82.02;92917.88;2064540;69;20153;-78
2023/07/19 02:36:58;;;;;;;17.13;6.35;;;;;;;19.42;82.03;92905.06;2064692;69;20156;-77
2023/07/19 02:39:27;;;;;;;22.75;6.35;;;;;;;19.42;80.34;92890.78;2064137;69;20576;-79
2023/07/19 02:41:53;;;;;;;14.07;5.95;;;;;;;19.33;80.63;92892.66;2064660;69;20229;-77
2023/07/19 02:44:21;;;;;;;18.40;5.95;;;;;;;19.49;81.59;92904.59;2064715;69;20239;-77
2023/07/19 02:46:46;;;;;;;18.95;6.45;;;;;;;19.43;82.65;92903.69;2064724;69;20607;-78
2023/07/19 02:49:13;;;;;;;20.25;6.40;;;;;;;19.39;82.93;92897.84;2064538;69;20121;-78
2023/07/19 02:51:39;;;;;;;20.67;6.55;;;;;;;19.45;82.24;92878.78;2064435;69;20220;-78
2023/07/19 02:54:06;;;;;;;15.43;5.78;;;;;;;19.40;81.86;92870.75;2064652;69;20144;-77
2023/07/19 02:56:35;;;;;;;22.05;6.32;;;;;;;19.44;81.73;92870.88;2064120;69;20293;-78
2023/07/19 02:59:02;;;;;;;15.68;6.10;;;;;;;19.42;82.07;92865.09;2063977;69;20620;-78
2023/07/19 03:01:30;;;;;;;16.27;6.47;;;;;;;19.37;82.47;92874.94;2064637;69;20156;-78
2023/07/19 03:03:57;;;;;;;21.48;6.28;;;;;;;19.36;82.75;92879.19;2063815;69;20145;-78
2023/07/19 03:06:23;;;;;;;18.67;5.95;;;;;;;19.52;78.66;92888.25;2061213;69;20156;-79
2023/07/19 03:08:48;;;;;;;13.18;6.72;;;;;;;19.25;81.12;92878.88;2064522;69;20575;-78
2023/07/19 03:11:14;;;;;;;13.85;6.00;;;;;;;19.32;82.04;92891.19;2063986;69;20180;-78
2023/07/19 03:13:41;;;;;;;18.83;6.45;;;;;;;19.34;82.33;92873.44;2064594;69;20210;-78
2023/07/19 03:16:08;;;;;;;19.52;6.35;;;;;;;19.37;81.31;92874.94;2064549;69;20149;-78
2023/07/19 03:18:35;;;;;;;16.38;6.80;;;;;;;19.27;81.21;92867.50;2063882;69;20148;-78
2023/07/19 03:21:02;;;;;;;18.05;6.32;;;;;;;19.24;82.56;92877.44;2063804;69;20137;-79
2023/07/19 03:23:32;;;;;;;23.23;7.40;;;;;;;19.32;82.09;92884.75;2064170;69;20520;-79
2023/07/19 03:25:58;;;;;;;20.52;7.05;;;;;;;19.36;81.75;92873.47;2063839;69;20156;-79
2023/07/19 03:28:29;;;;;;;19.60;6.97;;;;;;;19.22;81.40;92868.06;2063967;69;20230;-76
2023/07/19 03:30:55;;;;;;;18.60;6.53;;;;;;;18.91;84.80;92887.03;2063866;69;20161;-77
2023/07/19 03:33:22;;;;;;;21.20;6.75;;;;;;;19.23;83.69;92915.19;2063873;69;20172;-77
2023/07/19 03:35:48;;;;;;;18.33;6.28;;;;;;;19.36;82.52;92919.16;2063781;69;20157;-78
2023/07/19 03:38:17;;;;;;;23.48;6.70;;;;;;;19.23;82.77;92889.50;2063700;69;20160;-77
2023/07/19 03:40:44;;;;;;;16.63;6.57;;;;;;;19.23;80.48;92875.22;2064438;69;20172;-78
2023/07/19 03:43:11;;;;;;;21.65;6.65;;;;;;;18.95;83.55;92889.31;2064321;69;20168;-77
2023/07/19 03:45:38;;;;;;;22.88;6.80;;;;;;;19.05;84.01;92858.97;2063821;69;20172;-79
2023/07/19 03:48:05;;;;;;;17.83;6.50;;;;;;;19.23;83.32;92833.13;2063968;69;20152;-78
2023/07/19 03:50:32;;;;;;;15.70;6.30;;;;;;;19.11;83.64;92864.16;2061069;69;20238;-77
2023/07/19 03:52:59;;;;;;;21.75;6.25;;;;;;;19.03;83.38;92855.34;2060960;69;20227;-77
2023/07/19 03:55:24;;;;;;;18.95;6.30;;;;;;;18.91;84.21;92854.94;2063824;69;20161;-78
2023/07/19 03:57:51;;;;;;;14.32;5.93;;;;;;;19.08;83.33;92859.78;2061062;69;20168;-78
2023/07/19 04:00:17;;;;;;;15.05;5.95;;;;;;;19.19;83.08;92861.53;2064233;69;20141;-78
2023/07/19 04:02:43;;;;;;;19.00;5.88;;;;;;;19.29;83.01;92889.69;2064930;69;20601;-77
2023/07/19 04:05:09;;;;;;;16.60;6.18;;;;;;;19.03;83.50;92904.56;2064142;69;20156;-77
2023/07/19 04:07:36;;;;;;;14.13;6.22;;;;;;;18.90;84.99;92925.53;2064283;69;20157;-78
2023/07/19 04:10:03;;;;;;;16.15;6.00;;;;;;;19.15;84.23;92907.09;2064190;69;20141;-77
2023/07/19 04:12:30;;;;;;;17.42;6.68;;;;;;;19.34;80.86;92891.28;2064345;69;20179;-78
2023/07/19 04:14:56;;;;;;;15.18;5.95;;;;;;;18.83;85.03;92883.19;2064283;69;20210;-77
2023/07/19 04:17:28;;;;;;;15.73;6.38;;;;;;;19.09;84.00;92886.91;2064331;69;20141;-78
2023/07/19 04:19:55;;;;;;;15.00;5.47;;;;;;;19.33;81.23;92877.66;2063994;69;20580;-78
2023/07/19 04:22:24;;;;;;;19.40;6.40;;;;;;;19.16;82.23;92876.44;2064850;69;20144;-78
2023/07/19 04:24:50;;;;;;;17.98;5.88;;;;;;;19.24;82.80;92862.41;2064336;69;20183;-78
2023/07/19 04:27:16;;;;;;;14.65;5.32;;;;;;;19.33;82.28;92869.81;2061484;69;20529;-78
2023/07/19 04:29:41;;;;;;;15.55;5.85;;;;;;;19.22;84.20;92885.91;2064260;69;20152;-77
2023/07/19 04:32:11;;;;;;;16.58;5.85;;;;;;;19.25;83.87;92883.84;2064754;69;20628;-78
2023/07/19 04:34:38;;;;;;;13.00;5.65;;;;;;;19.27;83.63;92884.63;2064057;69;20195;-78
2023/07/19 04:37:04;;;;;;;13.98;5.43;;;;;;;19.25;83.65;92898.13;2064980;69;20148;-78
2023/07/19 04:39:30;;;;;;;17.08;5.32;;;;;;;19.32;83.07;92904.75;2061526;69;20133;-78
2023/07/19 04:41:55;;;;;;;16.60;5.57;;;;;;;19.28;83.52;92914.63;2064770;69;20255;-78
2023/07/19 04:44:22;;;;;;;15.90;5.90;;;;;;;19.18;83.98;92937.16;2064242;69;20443;-78
2023/07/19 04:46:48;;;;;;;18.05;6.80;;;;;;;19.23;81.86;92967.28;2064199;69;20262;-78
2023/07/19 04:49:13;;;;;;;18.10;6.35;;;;;;;19.38;81.61;93005.59;2064128;69;20149;-78
2023/07/19 04:51:42;;;;;;;20.75;6.85;;;;;;;19.05;85.60;93004.47;2064616;69;20137;-78
2023/07/19 04:54:07;;;;;;;20.02;6.70;;;;;;;18.98;83.38;92965.75;2064496;69;20212;-79
2023/07/19 04:56:34;;;;;;;10.02;4.85;;;;;;;18.54;87.74;92951.38;2064104;69;20669;-78
2023/07/19 04:58:59;;;;;;;10.20;4.32;;;;;;;18.16;91.96;92950.72;2064201;69;20141;-78
2023/07/19 05:01:25;;;;;;;11.50;4.70;;;;;;;18.62;90.22;92919.56;2064240;69;20161;-79
2023/07/19 05:03:51;;;;;;;12.80;4.88;;;;;;;18.63;89.11;92932.41;2061321;69;20145;-79
2023/07/19 05:06:20;;;;;;;16.65;5.90;;;;;;;18.78;88.50;92965.03;2064207;69;20174;-78
2023/07/19 05:08:46;;;;;;;16.00;5.72;;;;;;;18.80;88.23;92888.13;2064263;69;20597;-79
2023/07/19 05:11:13;;;;;;;16.02;5.82;;;;;;;18.81;86.91;92841.09;2058647;69;20155;-78
2023/07/19 05:13:38;;;;;;;16.35;5.88;;;;;;;18.91;86.25;92823.56;2064232;69;20145;-78
2023/07/19 05:16:04;;;;;;;16.92;5.88;;;;;;;18.88;87.25;92796.38;2064182;69;20147;-77
2023/07/19 05:18:31;;;;;;;13.07;5.43;;;;;;;18.88;86.50;92808.53;2061510;69;20149;-79
2023/07/19 05:20:57;;;;;;;11.20;4.63;;;;;;;18.69;86.37;92812.91;2064143;69;20160;-78
2023/07/19 05:23:23;;;;;;;16.50;5.55;;;;;;;18.97;87.08;92858.00;2064785;69;20137;-78
2023/07/19 05:25:49;;;;;;;16.00;5.65;;;;;;;19.04;87.06;92893.88;2064708;69;20145;-77
2023/07/19 05:28:14;;;;;;;12.75;5.10;;;;;;;19.15;86.60;92907.09;2064655;69;20141;-78
2023/07/19 05:30:41;;;;;;;14.38;5.47;;;;;;;18.96;86.44;92902.91;2064205;69;20215;-78
2023/07/19 05:33:06;;;;;;;16.33;6.28;;;;;;;18.96;87.27;92905.75;2064524;69;20152;-78
2023/07/19 05:35:32;;;;;;;14.90;5.78;;;;;;;19.19;86.12;92923.59;2064101;69;20145;-78
2023/07/19 05:37:58;;;;;;;19.30;5.95;;;;;;;19.41;84.52;92915.03;2064772;69;20594;-78
2023/07/19 05:40:24;;;;;;;11.05;4.80;;;;;;;19.33;86.41;92906.94;2064667;69;20190;-77
2023/07/19 05:42:51;;;;;;;16.42;6.80;;;;;;;19.11;86.11;92900.53;2064291;69;20219;-77
2023/07/19 05:45:17;;;;;;;12.20;6.10;;;;;;;19.07;87.54;92895.41;2064234;69;20240;-76
2023/07/19 05:47:44;;;;;;;13.70;6.28;;;;;;;19.34;86.45;92913.38;2064606;69;20137;-77
2023/07/19 05:50:10;;;;;;;16.58;6.60;;;;;;;19.35;84.79;92909.13;2061209;69;20141;-77
2023/07/19 05:52:37;;;;;;;16.85;6.28;;;;;;;19.33;85.55;92911.91;2064559;69;20573;-77
2023/07/19 05:55:02;;;;;;;16.90;6.05;;;;;;;19.34;86.52;92914.13;2064076;69;20165;-78
2023/07/19 05:57:30;;;;;;;13.27;6.22;;;;;;;19.36;86.03;92925.59;2063951;69;20251;-77
2023/07/19 06:00:02;;;;;;;13.75;5.75;;;;;;;19.48;85.71;92928.09;2064158;69;20141;-77
2023/07/19 06:02:38;;;;;;;14.98;5.70;;;;;;;19.52;83.46;92922.53;2061461;69;20183;-77
2023/07/19 06:05:04;;;;;;;19.55;6.35;;;;;;;19.15;85.80;92904.25;2061479;69;20179;-78
2023/07/19 06:07:29;;;;;;;19.13;6.43;;;;;;;19.11;87.71;92912.66;2060635;69;20238;-77
2023/07/19 06:09:57;;;;;;;12.07;6.18;;;;;;;19.57;86.84;92914.81;2060968;69;20149;-79
2023/07/19 06:12:23;;;;;;;16.92;5.53;;;;;;;19.80;86.48;92912.00;2060799;69;20164;-78
2023/07/19 06:14:49;;;;;;;18.35;6.63;;;;;;;19.77;81.86;92890.47;2060707;69;20145;-79
2023/07/19 06:17:14;;;;;;;17.23;6.90;;;;;;;19.62;85.10;92876.44;2060703;69;20199;-79
2023/07/19 06:19:40;;;;;;;15.93;6.65;;;;;;;19.44;85.57;92871.59;2060895;69;20223;-78
2023/07/19 06:22:05;;;;;;;15.38;6.07;;;;;;;19.63;86.04;92852.19;2060529;69;20188;-79
2023/07/19 06:24:31;;;;;;;16.33;6.43;;;;;;;19.66;86.72;92854.44;2061045;69;20145;-79
2023/07/19 06:26:57;;;;;;;17.30;6.10;;;;;;;19.71;85.75;92849.59;2060743;69;20172;-77
2023/07/19 06:29:24;;;;;;;15.35;6.13;;;;;;;19.80;85.62;92849.16;2061393;69;20589;-79
2023/07/19 06:31:50;;;;;;;19.88;6.20;;;;;;;19.85;86.98;92847.13;2061202;69;20145;-79
2023/07/19 06:34:15;;;;;;;14.77;6.13;;;;;;;19.98;86.64;92851.81;2057920;69;20140;-80
2023/07/19 06:36:41;;;;;;;12.90;5.78;;;;;;;20.06;87.01;92852.00;2061396;69;20605;-80
2023/07/19 06:39:07;;;;;;;14.50;5.93;;;;;;;20.19;86.68;92846.63;2061197;69;20224;-78
2023/07/19 06:41:33;;;;;;;18.33;5.75;;;;;;;20.34;87.58;92850.59;2060567;69;20151;-80
2023/07/19 06:43:58;;;;;;;11.13;5.55;;;;;;;20.50;86.45;92860.38;2061321;69;20203;-79
2023/07/19 06:46:24;;;;;;;18.52;6.53;;;;;;;20.63;86.14;92847.13;2061305;69;20133;-81
2023/07/19 06:48:51;;;;;;;18.08;6.47;;;;;;;20.71;82.94;92847.34;2061230;69;20177;-81
2023/07/19 06:51:17;;;;;;;16.80;6.45;;;;;;;20.74;84.29;92843.13;2061151;69;20129;-81
2023/07/19 06:53:42;;;;;;;16.05;6.18;;;;;;;20.63;86.49;92824.25;2057798;69;20204;-81
2023/07/19 06:56:08;;;;;;;17.48;6.55;;;;;;;20.70;83.04;92828.72;2061258;69;20618;-80
2023/07/19 06:58:37;;;;;;;11.90;5.70;;;;;;;20.71;85.12;92826.56;2061295;69;20689;-80
2023/07/19 07:01:04;;;;;;;13.27;5.78;;;;;;;20.69;83.49;92817.94;2061255;69;20533;-80
2023/07/19 07:03:29;;;;;;;15.70;6.28;;;;;;;20.73;83.54;92820.91;2061266;69;20594;-80
2023/07/19 07:05:55;;;;;;;13.93;6.40;;;;;;;21.06;83.20;92834.59;2061159;69;20207;-81
2023/07/19 07:08:21;;;;;;;15.85;6.28;;;;;;;21.30;82.42;92837.34;2061313;69;20194;-80
2023/07/19 07:10:46;;;;;;;18.90;6.20;;;;;;;21.65;83.60;92855.31;2061268;69;20255;-79
2023/07/19 07:13:14;;;;;;;22.20;6.72;;;;;;;21.32;81.24;92848.13;2060895;69;20617;-80
2023/07/19 07:15:40;;;;;;;17.00;7.30;;;;;;;21.54;80.91;92865.81;2061119;69;20220;-82
2023/07/19 07:18:06;;;;;;;18.60;6.55;;;;;;;21.48;81.48;92850.63;2060528;69;20303;-79
2023/07/19 07:20:34;;;;;;;15.70;6.55;;;;;;;21.62;81.42;92856.66;2060287;69;20241;-80
2023/07/19 07:23:00;;;;;;;19.77;7.15;;;;;;;21.48;81.43;92862.06;2060974;69;20494;-79
2023/07/19 07:25:26;;;;;;;13.38;5.93;;;;;;;21.71;79.72;92869.75;2061041;69;20211;-79
2023/07/19 07:27:51;;;;;;;17.70;6.40;;;;;;;21.61;81.30;92880.28;2060357;69;20565;-80
2023/07/19 07:30:19;;;;;;;17.80;6.32;;;;;;;21.59;80.50;92900.28;2061030;69;20149;-80
2023/07/19 07:32:45;;;;;;;18.55;6.10;;;;;;;21.33;79.79;92909.69;2061163;69;20144;-81
2023/07/19 07:35:14;;;;;;;12.40;5.78;;;;;;;21.30;78.22;92900.31;2060638;69;20548;-81
2023/07/19 07:37:40;;;;;;;16.33;6.50;;;;;;;21.04;78.29;92903.25;2061113;69;20145;-80
2023/07/19 07:40:08;;;;;;;10.88;5.65;;;;;;;21.18;78.67;92876.41;2061160;69;20524;-79
2023/07/19 07:42:35;;;;;;;14.27;6.32;;;;;;;21.21;79.47;92860.69;2061603;69;20129;-80
2023/07/19 07:45:00;;;;;;;14.25;6.35;;;;;;;21.21;79.66;92860.69;2061553;69;20145;-77
2023/07/19 07:47:26;;;;;;;15.82;6.50;;;;;;;21.12;82.69;92856.94;2061623;69;20228;-77
2023/07/19 07:49:52;;;;;;;16.83;6.15;;;;;;;21.43;79.64;92834.75;2061181;69;20208;-78
2023/07/19 07:52:17;;;;;;;23.73;7.00;;;;;;;21.59;78.76;92828.69;2061218;69;20157;-76
2023/07/19 07:54:44;;;;;;;14.27;6.65;;;;;;;21.70;82.31;92824.59;2061447;69;20142;-78
2023/07/19 07:57:12;;;;;;;14.07;6.47;;;;;;;21.86;80.96;92810.63;2061869;69;20145;-78
2023/07/19 07:59:38;;;;;;;18.90;6.57;;;;;;;22.26;78.95;92812.88;2065023;69;20168;-79
2023/07/19 08:02:04;;;;;;;11.80;6.05;;;;;;;22.62;78.42;92826.44;2064411;69;20625;-79
2023/07/19 08:04:30;;;;;;;15.05;6.30;;;;;;;22.49;76.69;92831.94;2064211;69;20145;-79
2023/07/19 08:06:56;;;;;;;14.15;6.65;;;;;;;22.33;76.87;92840.97;2064304;69;20504;-81
2023/07/19 08:09:24;;;;;;;15.25;6.57;;;;;;;22.24;73.98;92847.25;2064770;69;20182;-78
2023/07/19 08:11:50;;;;;;;20.90;7.15;;;;;;;22.67;76.54;92839.44;2064706;69;20223;-79
2023/07/19 08:14:19;;;;;;;15.57;6.55;;;;;;;23.25;74.31;92839.00;2064430;69;20528;-80
2023/07/19 08:16:50;;;;;;;15.98;7.00;;;;;;;23.57;73.15;92833.03;2063687;69;20149;-82
2023/07/19 08:19:16;;;;;;;15.98;6.45;;;;;;;23.50;74.75;92819.97;2066041;69;20195;-79
2023/07/19 08:21:41;;;;;;;15.30;6.80;;;;;;;23.25;72.71;92811.00;2064997;69;20287;-80
2023/07/19 08:24:08;;;;;;;19.02;6.72;;;;;;;23.26;72.37;92817.47;2064912;69;20125;-80
2023/07/19 08:26:34;;;;;;;13.07;6.07;;;;;;;22.87;74.12;92824.72;2064445;69;20142;-81
2023/07/19 08:28:59;;;;;;;15.10;6.05;;;;;;;22.61;74.58;92833.59;2064392;69;20141;-79
2023/07/19 08:31:25;;;;;;;15.57;6.82;;;;;;;22.86;74.44;92829.00;2065056;69;20565;-79
2023/07/19 08:33:52;;;;;;;13.98;6.35;;;;;;;22.74;73.98;92832.41;2064273;69;20627;-80
2023/07/19 08:36:18;;;;;;;16.48;6.25;;;;;;;22.86;75.14;92841.19;2064904;69;20193;-78
2023/07/19 08:38:47;;;;;;;16.65;6.45;;;;;;;22.83;75.68;92836.88;2065848;69;20607;-80
2023/07/19 08:41:19;;;;;;;14.27;5.88;;;;;;;22.98;73.76;92832.84;2065389;69;20151;-80
2023/07/19 08:43:45;;;;;;;17.40;6.82;;;;;;;22.96;75.16;92829.22;2064835;69;20224;-78
2023/07/19 08:46:18;;;;;;;14.40;6.65;;;;;;;22.99;75.96;92816.34;2065217;69;20171;-84
2023/07/19 08:48:48;;;;;;;17.13;6.30;;;;;;;22.89;76.16;92822.63;2064684;69;20144;-77
2023/07/19 08:51:16;;;;;;;12.77;6.10;;;;;;;22.91;76.01;92819.06;2064636;69;20156;-85
2023/07/19 08:53:42;;;;;;;19.30;6.53;;;;;;;22.68;72.98;92809.31;2064650;69;20156;-82
2023/07/19 08:56:11;;;;;;;14.18;7.13;;;;;;;22.08;76.60;92813.97;2063970;69;20155;-81
2023/07/19 08:58:39;;;;;;;15.45;6.05;;;;;;;22.65;75.17;92813.59;2064955;69;20585;-81
2023/07/19 09:01:07;;;;;;;18.08;6.60;;;;;;;22.77;74.81;92805.16;2064365;69;20137;-80
2023/07/19 09:03:34;;;;;;;14.80;6.47;;;;;;;22.79;75.44;92808.09;2064513;69;20137;-78
2023/07/19 09:05:59;;;;;;;17.27;6.55;;;;;;;22.82;75.84;92806.72;2064059;69;20148;-81
2023/07/19 09:08:38;;;;;;;13.25;6.50;;;;;;;23.01;75.75;92819.25;2063465;69;20161;-81
2023/07/19 09:11:04;;;;;;;12.80;5.78;;;;;;;23.70;75.00;92834.69;2063330;69;20151;-79
2023/07/19 09:13:32;;;;;;;16.38;6.72;;;;;;;24.29;76.83;92837.59;2063184;69;20145;-80
2023/07/19 09:15:59;;;;;;;14.88;6.25;;;;;;;24.52;69.80;92847.97;2064109;69;20218;-80
2023/07/19 09:18:34;;;;;;;16.23;7.00;;;;;;;24.97;69.63;92851.31;2063987;69;20145;-79
2023/07/19 09:20:59;;;;;;;15.95;6.25;;;;;;;24.67;65.66;92839.47;2064070;69;20145;-82
2023/07/19 09:23:25;;;;;;;17.20;6.20;;;;;;;24.87;67.14;92842.53;2064344;69;20232;-81
2023/07/19 09:25:53;;;;;;;16.33;6.53;;;;;;;25.77;66.27;92834.69;2064321;69;20793;-79
2023/07/19 09:28:22;;;;;;;11.10;5.70;;;;;;;25.60;61.05;92828.75;2064796;69;20232;-85
2023/07/19 09:30:58;;;;;;;12.50;5.97;;;;;;;25.55;59.15;92815.75;2066678;69;20224;-83
2023/07/19 09:33:27;;;;;;;15.15;6.32;;;;;;;26.08;57.81;92819.00;2061959;69;20133;-80
2023/07/19 09:35:57;;;;;;;12.85;5.90;;;;;;;25.91;59.00;92802.31;2064500;69;20215;-80
2023/07/19 09:38:27;;;;;;;11.93;5.72;;;;;;;25.71;56.83;92797.13;2064615;69;20496;-79
2023/07/19 09:40:54;;;;;;;13.38;5.90;;;;;;;26.73;55.71;92794.69;2061395;69;20137;-80
2023/07/19 09:43:21;;;;;;;18.13;6.13;;;;;;;27.29;53.93;92773.06;2063965;69;20144;-80
2023/07/19 09:45:50;;;;;;;15.00;5.80;;;;;;;27.49;53.30;92760.75;2064013;69;20149;-80
2023/07/19 09:48:16;;;;;;;15.52;6.20;;;;;;;27.88;49.89;92761.44;2064055;69;20334;-80
2023/07/19 09:50:42;;;;;;;16.23;6.20;;;;;;;28.44;49.83;92765.56;2064356;69;20152;-81
2023/07/19 09:53:13;;;;;;;13.20;5.70;;;;;;;29.48;49.95;92761.25;2064624;69;20176;-80
2023/07/19 09:55:39;;;;;;;17.15;5.57;;;;;;;28.85;48.61;92759.53;2064263;69;20171;-80
2023/07/19 09:58:10;;;;;;;14.13;5.60;;;;;;;28.16;48.39;92754.81;2064067;69;20745;-81
2023/07/19 10:00:39;;;;;;;10.98;5.18;;;;;;;29.36;49.56;92736.69;2064554;69;20232;-81
2023/07/19 10:03:07;;;;;;;14.93;5.72;;;;;;;30.16;46.10;92732.28;2064706;69;20596;-79
2023/07/19 10:05:37;;;;;;;17.50;5.75;;;;;;;30.84;48.94;92735.75;2064329;69;20136;-80
2023/07/19 10:08:06;;;;;;;16.38;5.95;;;;;;;30.16;46.50;92721.38;2063985;69;20193;-83
2023/07/19 10:10:39;;;;;;;11.60;5.10;;;;;;;30.08;44.98;92706.94;2064532;69;20544;-82
2023/07/19 10:13:06;;;;;;;13.80;5.65;;;;;;;29.42;44.95;92706.22;2064576;69;20244;-83
2023/07/19 10:15:32;;;;;;;13.93;5.35;;;;;;;31.06;44.31;92702.69;2064499;69;20284;-83
2023/07/19 10:18:00;;;;;;;16.30;6.10;;;;;;;31.57;43.83;92704.78;2061334;69;20270;-84
2023/07/19 10:20:34;;;;;;;14.70;5.78;;;;;;;30.76;42.28;92704.63;2064646;69;20225;-81
2023/07/19 10:23:08;;;;;;;9.80;5.15;;;;;;;32.00;41.70;92693.06;2064668;69;20145;-81
2023/07/19 10:25:49;;;;;;;8.75;5.10;;;;;;;31.63;42.13;92693.00;2064698;69;20249;-82
2023/07/19 10:28:31;;;;;;;12.38;5.47;;;;;;;33.29;41.10;92690.94;2061146;69;20157;-81
2023/07/19 10:31:02;;;;;;;;;;;;;;;33.03;39.04;92688.66;2063943;69;20141;-80
2023/07/19 10:33:33;;;;;;;9.73;4.90;;;;;;;33.01;38.39;92679.97;2064466;69;20058;-80
2023/07/19 10:36:06;;;;;;;11.75;5.25;;;;;;;32.29;39.79;92684.44;2063973;69;20184;-80
2023/07/19 10:38:34;;;;;;;12.43;5.32;;;;;;;31.56;40.22;92689.47;2064558;69;20172;-80
2023/07/19 10:41:03;;;;;;;12.20;5.28;;;;;;;32.08;40.60;92674.72;2064139;69;20199;-79
2023/07/19 10:43:35;;;;;;;12.20;4.78;;;;;;;30.63;42.06;92671.38;2064597;69;20137;-82
2023/07/19 10:46:03;;;;;;;9.32;5.07;;;;;;;32.58;39.33;92666.38;2063532;69;20529;-80
2023/07/19 10:48:32;;;;;;;11.25;4.78;;;;;;;33.96;39.67;92670.28;2064164;69;20171;-82
2023/07/19 10:51:00;;;;;;;9.95;4.88;;;;;;;36.33;37.35;92669.22;2064266;69;20137;-80
2023/07/19 10:53:26;;;;;;;11.07;4.90;;;;;;;34.78;35.87;92669.31;2063889;69;20161;-81
2023/07/19 10:56:00;;;;;;;10.05;4.90;;;;;;;33.08;39.07;92658.66;2064516;69;20254;-81
2023/07/19 10:58:25;;;;;;;10.48;5.15;;;;;;;37.99;32.55;92655.28;2063415;69;20222;-81
2023/07/19 11:01:16;;;;;;;9.77;4.90;;;;;;;33.90;37.84;92659.44;2061145;69;20670;-83
2023/07/19 11:03:51;;;;;;;9.57;4.95;;;;;;;35.44;36.32;92667.94;2064729;69;20141;-78
2023/07/19 11:06:24;;;;;;;11.95;4.95;;;;;;;37.09;32.70;92670.03;2064589;69;20137;-81
2023/07/19 11:12:37;;;;;;;12.05;4.95;;;;;;;34.23;35.79;92664.41;2065184;69;20484;-81
2023/07/19 11:15:07;;;;;;;12.43;5.00;;;;;;;37.43;32.22;92661.31;2064600;69;20148;-80
2023/07/19 11:17:34;;;;;;;13.30;5.00;;;;;;;42.22;28.54;92672.56;2064950;69;20660;-81
2023/07/19 11:20:00;;;;;;;10.70;4.70;;;;;;;42.26;25.77;92665.69;2064787;69;20177;-81
2023/07/19 11:22:27;;;;;;;9.25;4.63;;;;;;;43.57;23.92;92658.19;2064032;69;20372;-81
2023/07/19 11:24:56;;;;;;;9.80;5.10;;;;;;;42.37;24.72;92645.78;2064197;69;20165;-80
2023/07/19 11:27:35;;;;;;;9.70;5.00;;;;;;;41.66;25.56;92650.72;2064687;69;20188;-79
2023/07/19 11:30:03;;;;;;;10.65;5.30;;;;;;;40.72;27.32;92646.41;2064728;69;20609;-82
2023/07/19 11:32:29;;;;;;;10.32;5.18;;;;;;;41.84;26.49;92643.75;2063693;69;20172;-82